Time;durP1;ratioP1;P1;durP2;ratioP2;P2;SDS_P1;SDS_P2;PMS_P1;PMS_P2;Temp;Humidity;BMP_temperature;BMP_pressure;BME280_temperature;BME280_humidity;BME280_pressure;Samples;Min_cycle;Max_cycle;Signal;HPM_P1;HPM_P2
2023/11/07 00:00:13;;;;;;;0.88;0.57;;;9.90;99.90;;;;;;4970105;28;20046;-79
2023/11/07 00:02:41;;;;;;;1.20;0.57;;;10.00;99.90;;;;;;5006015;28;20496;-80
2023/11/07 00:05:11;;;;;;;1.38;0.50;;;10.00;99.90;;;;;;4979404;28;20085;-79
2023/11/07 00:07:38;;;;;;;0.55;0.30;;;10.10;99.90;;;;;;4992191;28;20511;-77
2023/11/07 00:10:05;;;;;;;1.45;0.63;;;10.10;99.90;;;;;;4992828;28;20042;-79
2023/11/07 00:12:32;;;;;;;1.15;0.52;;;10.10;99.90;;;;;;4978402;28;20047;-79
2023/11/07 00:14:59;;;;;;;3.05;0.50;;;10.10;99.90;;;;;;4972387;28;20093;-79
2023/11/07 00:17:26;;;;;;;2.17;0.55;;;10.10;99.90;;;;;;4990956;28;20066;-79
2023/11/07 00:19:55;;;;;;;0.28;0.28;;;10.20;99.90;;;;;;4998626;28;20082;-79
2023/11/07 00:22:23;;;;;;;2.00;0.50;;;10.20;99.90;;;;;;4998772;28;20042;-78
2023/11/07 00:24:50;;;;;;;0.80;0.50;;;10.30;99.90;;;;;;4993361;28;20038;-79
2023/11/07 00:27:18;;;;;;;0.50;0.40;;;10.30;99.90;;;;;;4988522;28;20046;-79
2023/11/07 00:29:46;;;;;;;1.35;0.35;;;10.30;99.90;;;;;;5003831;28;20078;-79
2023/11/07 00:32:14;;;;;;;2.72;0.50;;;10.30;99.90;;;;;;4992158;28;20054;-79
2023/11/07 00:34:41;;;;;;;0.40;0.40;;;10.30;99.90;;;;;;4993979;28;20088;-79
2023/11/07 00:37:09;;;;;;;2.47;0.50;;;10.30;99.90;;;;;;4987381;28;20057;-79
2023/11/07 00:39:36;;;;;;;1.35;0.35;;;10.40;99.90;;;;;;4989452;28;20546;-79
2023/11/07 00:42:04;;;;;;;1.02;0.60;;;10.40;99.90;;;;;;4973211;28;20050;-79
2023/11/07 00:44:31;;;;;;;0.47;0.47;;;10.40;99.90;;;;;;4985689;28;20086;-79
2023/11/07 00:46:59;;;;;;;1.33;0.43;;;10.40;99.90;;;;;;4978153;28;20081;-80
2023/11/07 00:49:27;;;;;;;3.20;0.70;;;10.40;99.90;;;;;;4992655;28;20506;-79
2023/11/07 00:51:54;;;;;;;1.98;0.70;;;10.40;99.90;;;;;;4992515;28;20050;-79
2023/11/07 00:54:21;;;;;;;1.05;0.70;;;10.40;99.90;;;;;;4989409;28;20414;-79
2023/11/07 00:56:48;;;;;;;0.60;0.60;;;10.40;99.90;;;;;;4990597;28;20046;-79
2023/11/07 00:59:15;;;;;;;1.05;0.50;;;10.50;99.90;;;;;;4986566;28;20138;-79
2023/11/07 01:01:41;;;;;;;0.95;0.50;;;10.50;99.90;;;;;;4993471;28;20047;-79
2023/11/07 01:04:08;;;;;;;2.08;0.57;;;10.50;99.90;;;;;;4992790;28;20442;-79
2023/11/07 01:06:35;;;;;;;1.85;0.70;;;10.50;99.90;;;;;;4970387;28;20058;-80
2023/11/07 01:09:03;;;;;;;2.05;0.50;;;10.50;99.90;;;;;;4989176;28;20046;-79
2023/11/07 01:11:31;;;;;;;2.28;0.50;;;10.50;99.90;;;;;;4966088;28;20058;-80
2023/11/07 01:13:57;;;;;;;1.40;0.65;;;10.40;99.90;;;;;;4987925;28;20523;-79
2023/11/07 01:16:25;;;;;;;1.58;0.65;;;10.40;99.90;;;;;;4994386;28;20046;-79
2023/11/07 01:18:52;;;;;;;3.10;0.60;;;10.50;99.90;;;;;;4987741;28;20093;-79
2023/11/07 01:21:19;;;;;;;2.70;0.65;;;10.50;99.90;;;;;;4990531;28;20399;-78
2023/11/07 01:23:46;;;;;;;2.80;0.60;;;10.50;99.90;;;;;;4989438;28;20057;-79
2023/11/07 01:26:13;;;;;;;2.40;0.60;;;10.50;99.90;;;;;;4987812;28;20050;-79
2023/11/07 01:28:39;;;;;;;1.02;0.60;;;10.50;99.90;;;;;;4989874;28;20069;-79
2023/11/07 01:31:06;;;;;;;2.30;0.80;;;10.40;99.90;;;;;;4994074;28;20053;-79
2023/11/07 01:33:34;;;;;;;1.58;0.40;;;10.40;99.90;;;;;;4990923;28;20154;-79
2023/11/07 01:36:01;;;;;;;3.88;0.52;;;10.40;99.90;;;;;;4992012;28;20042;-79
2023/11/07 01:38:28;;;;;;;1.83;0.70;;;10.40;99.90;;;;;;4990320;28;20069;-79
2023/11/07 01:40:55;;;;;;;1.48;0.60;;;10.40;99.90;;;;;;4992048;28;20465;-79
2023/11/07 01:43:23;;;;;;;1.00;0.60;;;10.30;99.90;;;;;;4973746;28;20434;-79
2023/11/07 01:45:50;;;;;;;0.82;0.60;;;10.30;99.90;;;;;;4974058;28;20073;-79
2023/11/07 01:48:25;;;;;;;2.00;0.68;;;10.20;99.90;;;;;;4991508;28;20104;-79
2023/11/07 01:50:53;;;;;;;3.33;0.90;;;10.20;99.90;;;;;;4989608;28;20498;-79
2023/11/07 01:53:20;;;;;;;0.90;0.50;;;10.10;99.90;;;;;;4969801;28;20341;-79
2023/11/07 01:55:48;;;;;;;0.80;0.55;;;10.10;99.90;;;;;;4985016;28;20423;-79
2023/11/07 01:58:16;;;;;;;3.38;1.15;;;10.00;99.90;;;;;;4990471;28;20106;-79
2023/11/07 02:00:44;;;;;;;2.40;0.82;;;9.90;99.90;;;;;;4991374;28;20494;-79
2023/11/07 02:03:11;;;;;;;1.85;0.60;;;9.90;99.90;;;;;;4991060;28;20125;-80
2023/11/07 02:05:41;;;;;;;2.25;0.80;;;9.80;99.90;;;;;;4987235;28;20106;-79
2023/11/07 02:08:09;;;;;;;;;;;9.80;99.90;;;;;;4984650;28;20495;-80
2023/11/07 02:10:37;;;;;;;5.25;0.70;;;9.80;99.90;;;;;;4984100;28;19968;-79
2023/11/07 02:13:04;;;;;;;2.08;0.80;;;9.70;99.90;;;;;;4994318;28;20058;-79
2023/11/07 02:15:31;;;;;;;2.20;0.60;;;9.70;99.90;;;;;;4974296;28;20046;-79
2023/11/07 02:17:59;;;;;;;1.60;0.77;;;9.60;99.90;;;;;;5002554;28;20070;-80
2023/11/07 02:20:26;;;;;;;2.53;0.80;;;9.60;99.90;;;;;;4987905;28;20078;-79
2023/11/07 02:23:00;;;;;;;2.53;0.73;;;9.60;99.90;;;;;;4986680;28;20112;-79
2023/11/07 02:25:27;;;;;;;1.42;0.73;;;9.60;99.90;;;;;;4987228;28;20046;-79
2023/11/07 02:27:55;;;;;;;2.58;0.77;;;9.60;99.90;;;;;;4993035;28;20498;-79
2023/11/07 02:30:22;;;;;;;2.30;0.93;;;9.60;99.90;;;;;;4992114;28;20046;-79
2023/11/07 02:32:48;;;;;;;2.92;0.60;;;9.60;99.90;;;;;;4989429;28;20101;-80
2023/11/07 02:35:15;;;;;;;3.05;0.77;;;9.50;99.90;;;;;;4992774;28;20438;-79
2023/11/07 02:37:46;;;;;;;1.58;0.50;;;9.50;99.90;;;;;;4989841;28;20054;-79
2023/11/07 02:40:13;;;;;;;1.30;0.50;;;9.40;99.90;;;;;;4995186;28;20039;-79
2023/11/07 02:42:40;;;;;;;1.52;0.70;;;9.50;99.90;;;;;;4995620;28;20050;-79
2023/11/07 02:45:07;;;;;;;3.03;0.70;;;9.40;99.90;;;;;;4995178;28;20049;-79
2023/11/07 02:47:34;;;;;;;2.85;0.90;;;9.40;99.90;;;;;;4991527;28;20065;-79
2023/11/07 02:50:09;;;;;;;2.47;0.80;;;9.40;99.90;;;;;;4991945;28;20081;-79
2023/11/07 02:52:38;;;;;;;3.00;0.50;;;9.40;99.90;;;;;;4984521;28;20050;-80
2023/11/07 02:55:06;;;;;;;0.93;0.60;;;9.30;99.90;;;;;;4993605;28;20073;-79
2023/11/07 02:57:32;;;;;;;2.92;0.70;;;9.30;99.90;;;;;;4994913;28;20050;-79
2023/11/07 02:59:59;;;;;;;1.10;0.60;;;9.30;99.90;;;;;;4989018;28;20049;-79
2023/11/07 03:02:26;;;;;;;2.88;0.70;;;9.30;99.90;;;;;;4991593;28;20038;-79
2023/11/07 03:04:54;;;;;;;2.38;0.70;;;9.30;99.90;;;;;;4990828;28;20047;-79
2023/11/07 03:07:22;;;;;;;3.45;0.70;;;9.30;99.90;;;;;;4987945;28;20046;-78
2023/11/07 03:09:48;;;;;;;2.42;0.70;;;9.30;99.90;;;;;;4995208;28;20541;-79
2023/11/07 03:12:16;;;;;;;1.95;0.70;;;9.20;99.90;;;;;;4995937;28;20050;-79
2023/11/07 03:14:43;;;;;;;2.28;0.68;;;9.20;99.90;;;;;;4975388;28;20055;-79
2023/11/07 03:17:10;;;;;;;1.83;0.65;;;9.20;99.90;;;;;;4993302;28;20131;-79
2023/11/07 03:19:37;;;;;;;2.60;0.70;;;9.20;99.90;;;;;;4967617;28;20051;-79
2023/11/07 03:22:04;;;;;;;2.03;0.82;;;9.20;99.90;;;;;;4989297;28;20046;-79
2023/11/07 03:24:31;;;;;;;2.63;0.80;;;9.30;99.90;;;;;;4989533;28;20053;-79
2023/11/07 03:26:58;;;;;;;1.02;0.52;;;9.30;99.90;;;;;;4994850;28;20399;-79
2023/11/07 03:29:25;;;;;;;1.20;0.60;;;9.30;99.90;;;;;;4994598;28;20046;-79
2023/11/07 03:31:53;;;;;;;2.08;0.73;;;9.20;99.90;;;;;;4971968;28;20051;-79
2023/11/07 03:34:21;;;;;;;1.85;0.63;;;9.20;99.90;;;;;;4987643;28;20145;-78
2023/11/07 03:36:48;;;;;;;0.70;0.68;;;9.20;99.90;;;;;;4988238;28;20105;-79
2023/11/07 03:39:15;;;;;;;2.78;0.95;;;9.20;99.90;;;;;;4994316;28;20129;-78
2023/11/07 03:41:43;;;;;;;3.67;0.57;;;9.20;99.90;;;;;;4973607;28;20478;-78
2023/11/07 03:44:10;;;;;;;1.15;0.63;;;9.10;99.90;;;;;;4989660;28;20126;-79
2023/11/07 03:46:36;;;;;;;1.77;0.70;;;9.10;99.90;;;;;;4985431;28;20047;-78
2023/11/07 03:49:03;;;;;;;0.60;0.60;;;9.10;99.90;;;;;;4986456;28;20403;-79
2023/11/07 03:51:30;;;;;;;2.53;0.60;;;9.10;99.90;;;;;;4987177;28;20054;-79
2023/11/07 03:53:57;;;;;;;0.40;0.40;;;9.10;99.90;;;;;;4992455;28;20054;-79
2023/11/07 03:56:23;;;;;;;3.05;0.55;;;9.10;99.90;;;;;;4991858;28;20074;-79
2023/11/07 03:58:51;;;;;;;6.75;1.90;;;9.10;99.90;;;;;;4967787;28;20051;-78
2023/11/07 04:01:17;;;;;;;5.22;1.30;;;9.10;99.90;;;;;;4989583;28;20046;-78
2023/11/07 04:03:44;;;;;;;1.15;0.57;;;9.10;99.90;;;;;;4984716;28;20051;-79
2023/11/07 04:06:11;;;;;;;1.65;0.55;;;9.10;99.90;;;;;;4990741;28;20129;-79
2023/11/07 04:08:38;;;;;;;1.35;0.68;;;9.10;99.90;;;;;;4975345;28;20042;-79
2023/11/07 04:11:05;;;;;;;1.15;0.70;;;9.10;99.90;;;;;;4991460;28;20053;-79
2023/11/07 04:13:34;;;;;;;1.65;0.65;;;9.10;99.90;;;;;;4971852;28;20100;-79
2023/11/07 04:16:02;;;;;;;1.70;0.60;;;9.10;99.90;;;;;;4987715;28;20057;-79
2023/11/07 04:18:29;;;;;;;2.05;0.80;;;9.20;99.90;;;;;;4967624;28;20413;-79
2023/11/07 04:20:57;;;;;;;1.45;0.60;;;9.20;99.90;;;;;;4992807;28;20054;-79
2023/11/07 04:23:24;;;;;;;4.68;0.80;;;9.30;99.90;;;;;;4994568;28;20046;-79
2023/11/07 04:25:50;;;;;;;0.95;0.60;;;9.30;99.90;;;;;;4995100;28;20053;-79
2023/11/07 04:28:17;;;;;;;2.25;0.77;;;9.40;99.90;;;;;;4990628;28;20042;-78
2023/11/07 04:30:44;;;;;;;5.07;0.60;;;9.40;99.90;;;;;;4985482;28;20160;-79
2023/11/07 04:33:11;;;;;;;1.15;0.60;;;9.40;99.90;;;;;;4983772;28;20070;-79
2023/11/07 04:35:42;;;;;;;3.58;0.75;;;9.50;99.90;;;;;;4994007;28;20145;-79
2023/11/07 04:38:09;;;;;;;1.25;0.50;;;9.50;99.90;;;;;;4986715;28;20521;-79
2023/11/07 04:40:38;;;;;;;1.15;0.57;;;9.60;99.90;;;;;;4972248;28;20522;-79
2023/11/07 04:43:05;;;;;;;1.63;0.50;;;9.60;99.90;;;;;;4988455;28;20474;-79
2023/11/07 04:45:32;;;;;;;1.65;0.50;;;9.60;99.90;;;;;;4985752;28;20050;-79
2023/11/07 04:47:59;;;;;;;3.00;0.73;;;9.60;99.90;;;;;;4985068;28;20557;-78
2023/11/07 04:50:26;;;;;;;3.38;1.02;;;9.60;99.90;;;;;;4992673;28;20137;-79
2023/11/07 04:52:53;;;;;;;0.60;0.55;;;9.70;99.90;;;;;;4989897;28;20054;-78
2023/11/07 04:55:21;;;;;;;1.95;0.50;;;9.70;99.90;;;;;;4989643;28;20050;-78
2023/11/07 04:57:51;;;;;;;1.20;0.47;;;9.70;99.90;;;;;;4985155;28;20047;-78
2023/11/07 05:00:19;;;;;;;3.25;0.68;;;9.70;99.90;;;;;;4982833;28;20042;-79
2023/11/07 05:02:46;;;;;;;2.40;0.60;;;9.70;99.90;;;;;;4986315;28;20066;-79
2023/11/07 05:05:14;;;;;;;2.65;0.90;;;9.80;99.90;;;;;;4991920;28;20418;-78
2023/11/07 05:07:41;;;;;;;0.95;0.52;;;9.80;99.90;;;;;;4991158;28;20137;-79
2023/11/07 05:10:12;;;;;;;0.95;0.60;;;9.80;99.90;;;;;;4991011;28;20101;-78
2023/11/07 05:12:39;;;;;;;4.22;2.00;;;9.80;99.90;;;;;;4985761;28;20403;-79
2023/11/07 05:15:07;;;;;;;3.97;2.17;;;9.90;99.90;;;;;;4985797;28;20054;-79
2023/11/07 05:17:35;;;;;;;4.03;3.10;;;9.90;99.90;;;;;;4989884;28;20129;-79
2023/11/07 05:20:07;;;;;;;2.28;1.35;;;9.90;99.90;;;;;;4991309;28;20050;-78
2023/11/07 05:22:34;;;;;;;0.50;0.50;;;9.90;99.90;;;;;;4985378;28;20434;-79
2023/11/07 05:25:01;;;;;;;2.70;1.30;;;9.90;99.90;;;;;;4988334;28;20463;-79
2023/11/07 05:27:28;;;;;;;2.25;0.65;;;9.90;99.90;;;;;;4987335;28;20050;-79
2023/11/07 05:29:55;;;;;;;2.35;0.70;;;9.90;99.90;;;;;;4976817;28;20423;-79
2023/11/07 05:32:21;;;;;;;2.63;1.20;;;9.90;99.90;;;;;;4994782;28;20518;-79
2023/11/07 05:34:48;;;;;;;1.38;1.00;;;9.90;99.90;;;;;;4975569;28;20061;-79
2023/11/07 05:37:16;;;;;;;2.08;1.02;;;10.00;99.90;;;;;;4973151;28;20042;-79
2023/11/07 05:39:44;;;;;;;2.15;0.93;;;9.90;99.90;;;;;;4988478;28;20058;-79
2023/11/07 05:42:12;;;;;;;1.98;0.70;;;9.90;99.90;;;;;;4991550;28;20101;-78
2023/11/07 05:44:39;;;;;;;0.43;0.40;;;9.90;99.90;;;;;;4987288;28;20392;-79
2023/11/07 05:47:06;;;;;;;2.70;0.90;;;10.00;99.90;;;;;;4993825;28;20055;-79
2023/11/07 05:49:35;;;;;;;1.85;0.80;;;9.90;99.90;;;;;;4991908;28;20081;-79
2023/11/07 05:52:03;;;;;;;2.05;0.65;;;9.90;99.90;;;;;;4986618;28;20051;-79
2023/11/07 05:54:30;;;;;;;2.60;0.70;;;10.00;99.90;;;;;;4987615;28;20057;-78
2023/11/07 05:56:57;;;;;;;1.77;0.60;;;10.00;99.90;;;;;;4983949;28;20065;-79
2023/11/07 05:59:26;;;;;;;2.80;0.70;;;9.90;99.90;;;;;;4968127;28;20042;-79
2023/11/07 06:01:54;;;;;;;1.80;0.67;;;9.90;99.90;;;;;;4990562;28;20052;-79
2023/11/07 06:04:33;;;;;;;6.38;0.80;;;9.90;99.90;;;;;;4989896;28;20105;-78
2023/11/07 06:07:00;;;;;;;1.25;0.50;;;9.90;99.90;;;;;;4989542;28;20047;-79
2023/11/07 06:09:27;;;;;;;2.05;0.90;;;9.80;99.90;;;;;;4982432;28;20049;-79
2023/11/07 06:11:54;;;;;;;1.40;0.70;;;9.80;99.90;;;;;;4973728;28;20082;-79
2023/11/07 06:14:21;;;;;;;1.13;0.60;;;9.70;99.90;;;;;;4974121;28;20069;-79
2023/11/07 06:16:47;;;;;;;3.60;0.68;;;9.70;99.90;;;;;;4977023;28;20047;-79
2023/11/07 06:19:14;;;;;;;1.15;0.50;;;9.70;99.90;;;;;;4992957;28;20077;-79
2023/11/07 06:21:41;;;;;;;1.88;0.57;;;9.60;99.90;;;;;;4977105;28;20043;-79
2023/11/07 06:24:08;;;;;;;3.47;0.50;;;9.60;99.90;;;;;;4991974;28;20095;-79
2023/11/07 06:26:34;;;;;;;1.92;0.50;;;9.60;99.90;;;;;;4989679;28;20046;-79
2023/11/07 06:29:02;;;;;;;0.73;0.57;;;9.60;99.90;;;;;;4990782;28;20050;-79
2023/11/07 06:31:29;;;;;;;1.17;0.65;;;9.60;99.90;;;;;;4991689;28;20120;-79
2023/11/07 06:33:55;;;;;;;1.38;0.50;;;9.60;99.90;;;;;;4970138;28;20053;-78
2023/11/07 06:36:24;;;;;;;4.05;1.52;;;9.50;99.90;;;;;;4987977;28;20054;-79
2023/11/07 06:38:51;;;;;;;2.85;0.90;;;9.50;99.90;;;;;;4966590;28;20050;-79
2023/11/07 06:41:19;;;;;;;5.40;1.98;;;9.50;99.90;;;;;;4969120;28;20132;-79
2023/11/07 06:43:46;;;;;;;5.65;2.50;;;9.50;99.90;;;;;;4967732;28;20046;-79
2023/11/07 06:46:14;;;;;;;4.75;1.70;;;9.50;99.90;;;;;;4991214;28;20050;-78
2023/11/07 06:48:48;;;;;;;4.22;1.67;;;9.50;99.90;;;;;;4971544;28;20108;-79
2023/11/07 06:51:18;;;;;;;1.60;1.30;;;9.50;99.90;;;;;;4985388;28;20058;-78
2023/11/07 06:53:45;;;;;;;1.33;0.90;;;9.50;99.90;;;;;;4983154;28;20094;-78
2023/11/07 06:56:15;;;;;;;0.60;0.52;;;9.60;99.90;;;;;;4983913;28;21330;-79
2023/11/07 06:58:42;;;;;;;1.40;0.60;;;9.60;99.90;;;;;;4991367;28;20053;-79
2023/11/07 07:01:10;;;;;;;1.40;0.60;;;9.60;99.90;;;;;;4969932;28;20098;-78
2023/11/07 07:03:38;;;;;;;2.72;0.75;;;9.70;99.90;;;;;;4982689;28;20046;-79
2023/11/07 07:06:06;;;;;;;2.35;0.70;;;9.70;99.90;;;;;;4987570;28;20110;-79
2023/11/07 07:08:33;;;;;;;2.05;0.45;;;9.80;99.90;;;;;;4968191;28;20050;-79
2023/11/07 07:11:00;;;;;;;4.07;0.90;;;9.80;99.90;;;;;;4985168;28;20058;-78
2023/11/07 07:13:26;;;;;;;1.55;0.50;;;9.90;99.90;;;;;;4990407;28;20054;-78
2023/11/07 07:15:53;;;;;;;2.38;0.40;;;9.90;99.90;;;;;;4970798;28;20053;-79
2023/11/07 07:18:22;;;;;;;1.75;0.57;;;9.90;99.90;;;;;;4987776;28;20097;-78
2023/11/07 07:20:53;;;;;;;2.40;0.47;;;10.00;99.90;;;;;;4969816;28;20042;-79
2023/11/07 07:23:24;;;;;;;1.13;0.52;;;10.00;99.90;;;;;;4976654;28;20584;-79
2023/11/07 07:25:53;;;;;;;1.92;0.50;;;10.00;99.90;;;;;;4985034;28;20054;-79
2023/11/07 07:28:20;;;;;;;2.08;0.43;;;10.00;99.90;;;;;;4987147;28;20129;-79
2023/11/07 07:30:48;;;;;;;1.25;0.70;;;10.00;99.90;;;;;;4992075;28;20057;-78
2023/11/07 07:33:16;;;;;;;2.08;0.70;;;10.10;99.90;;;;;;4990116;28;20069;-78
2023/11/07 07:35:45;;;;;;;0.60;0.45;;;10.10;99.90;;;;;;4988509;28;20046;-79
2023/11/07 07:38:12;;;;;;;1.27;0.50;;;10.10;99.90;;;;;;4988386;28;20047;-79
2023/11/07 07:40:39;;;;;;;0.93;0.40;;;10.10;99.90;;;;;;4992697;28;20050;-78
2023/11/07 07:43:09;;;;;;;2.42;0.70;;;10.10;99.90;;;;;;4974917;28;20054;-79
2023/11/07 07:45:42;;;;;;;0.98;0.40;;;10.10;99.90;;;;;;4989662;28;20056;-79
2023/11/07 07:48:10;;;;;;;3.55;0.68;;;10.10;99.90;;;;;;4968548;28;20111;-78
2023/11/07 07:50:41;;;;;;;1.15;0.50;;;10.20;99.90;;;;;;4987651;28;20050;-79
2023/11/07 07:53:10;;;;;;;0.65;0.47;;;10.20;99.90;;;;;;4985532;28;20055;-79
2023/11/07 07:55:42;;;;;;;0.75;0.50;;;10.20;99.90;;;;;;4992792;28;20058;-78
2023/11/07 07:58:11;;;;;;;1.00;0.68;;;10.30;99.90;;;;;;4991226;28;20454;-79
2023/11/07 08:00:38;;;;;;;1.45;0.63;;;10.30;99.90;;;;;;4991320;28;20046;-79
2023/11/07 08:03:06;;;;;;;1.23;0.60;;;10.30;99.90;;;;;;4986449;28;20543;-79
2023/11/07 08:05:38;;;;;;;0.73;0.60;;;10.40;99.90;;;;;;4983090;28;20052;-78
2023/11/07 08:08:07;;;;;;;2.42;0.70;;;10.40;99.90;;;;;;5001943;28;20070;-79
2023/11/07 08:10:35;;;;;;;1.35;0.50;;;10.40;99.90;;;;;;4990981;28;20560;-79
2023/11/07 08:13:06;;;;;;;0.85;0.60;;;10.50;99.90;;;;;;4989891;28;20050;-79
2023/11/07 08:15:35;;;;;;;2.25;0.90;;;10.50;99.90;;;;;;4989302;28;20105;-79
2023/11/07 08:18:06;;;;;;;1.27;0.40;;;10.50;99.90;;;;;;4986224;28;20104;-79
2023/11/07 08:20:37;;;;;;;1.92;0.60;;;10.60;99.90;;;;;;4985922;28;20046;-78
2023/11/07 08:23:04;;;;;;;1.58;0.68;;;10.60;99.90;;;;;;4974913;28;20462;-78
2023/11/07 08:25:32;;;;;;;0.50;0.30;;;10.70;99.90;;;;;;4992689;28;20105;-79
2023/11/07 08:27:59;;;;;;;1.42;0.60;;;10.70;99.90;;;;;;4972458;28;20058;-78
2023/11/07 08:30:26;;;;;;;0.82;0.45;;;10.70;99.90;;;;;;4989792;28;20460;-79
2023/11/07 08:32:53;;;;;;;0.65;0.60;;;10.80;99.90;;;;;;4985497;28;20121;-79
2023/11/07 08:35:20;;;;;;;0.77;0.50;;;10.80;99.90;;;;;;4986690;28;20061;-79
2023/11/07 08:37:49;;;;;;;0.85;0.50;;;10.80;99.90;;;;;;4972851;28;20082;-79
2023/11/07 08:40:19;;;;;;;0.98;0.60;;;10.80;99.90;;;;;;4991742;28;20055;-79
2023/11/07 08:42:48;;;;;;;1.38;0.60;;;10.80;99.90;;;;;;4989139;28;20094;-79
2023/11/07 08:45:18;;;;;;;1.17;0.65;;;10.80;99.90;;;;;;4999910;28;20114;-79
2023/11/07 08:47:46;;;;;;;2.15;0.60;;;10.90;99.90;;;;;;4981681;28;20061;-79
2023/11/07 08:50:14;;;;;;;2.65;0.63;;;10.90;99.90;;;;;;4996513;28;20090;-79
2023/11/07 08:52:41;;;;;;;1.17;0.60;;;10.90;99.90;;;;;;5005253;28;20073;-79
2023/11/07 08:55:09;;;;;;;0.98;0.50;;;11.00;99.90;;;;;;4985267;28;20085;-79
2023/11/07 08:57:41;;;;;;;1.33;0.55;;;11.00;99.90;;;;;;5000134;28;20522;-79
2023/11/07 09:00:13;;;;;;;2.05;0.40;;;11.10;99.90;;;;;;4997986;28;20071;-79
2023/11/07 09:02:41;;;;;;;1.40;0.45;;;11.10;99.90;;;;;;4995493;28;20047;-79
2023/11/07 09:05:08;;;;;;;0.50;0.40;;;11.10;99.90;;;;;;4986334;28;20057;-79
2023/11/07 09:07:35;;;;;;;1.00;0.50;;;11.10;99.90;;;;;;5003705;28;20051;-79
2023/11/07 09:10:02;;;;;;;0.40;0.40;;;11.10;99.90;;;;;;5000760;28;20047;-79
2023/11/07 09:12:29;;;;;;;2.05;0.70;;;11.10;99.90;;;;;;5007221;28;20065;-79
2023/11/07 09:14:56;;;;;;;0.57;0.40;;;11.10;99.90;;;;;;4997578;28;20053;-79
2023/11/07 09:17:24;;;;;;;3.05;0.55;;;11.20;99.90;;;;;;4984041;28;20042;-80
2023/11/07 09:19:51;;;;;;;2.08;0.43;;;11.20;99.90;;;;;;5003542;28;20046;-79
2023/11/07 09:22:18;;;;;;;0.73;0.52;;;11.20;99.90;;;;;;4987312;28;20047;-79
2023/11/07 09:24:44;;;;;;;1.33;0.52;;;11.20;99.90;;;;;;5000179;28;20046;-80
2023/11/07 09:27:11;;;;;;;3.53;0.45;;;11.30;99.90;;;;;;5000577;28;20133;-80
2023/11/07 09:29:39;;;;;;;0.95;0.50;;;11.30;99.90;;;;;;5024817;23;20066;-78
2023/11/07 09:32:07;;;;;;;1.80;0.70;;;11.40;99.90;;;;;;5004600;28;20502;-78
2023/11/07 09:34:38;;;;;;;1.55;0.55;;;11.40;99.90;;;;;;5001371;28;20050;-78
2023/11/07 09:37:05;;;;;;;0.85;0.40;;;11.40;99.90;;;;;;5002486;28;20134;-79
2023/11/07 09:39:32;;;;;;;1.10;0.40;;;11.50;99.90;;;;;;5012246;28;20430;-78
2023/11/07 09:41:59;;;;;;;1.60;0.50;;;11.50;99.90;;;;;;4982548;28;20442;-78
2023/11/07 09:44:27;;;;;;;1.25;0.63;;;11.50;99.90;;;;;;4983550;28;20043;-79
2023/11/07 09:46:56;;;;;;;0.90;0.60;;;11.50;99.90;;;;;;5014460;28;20049;-77
2023/11/07 09:49:23;;;;;;;1.35;0.40;;;11.50;99.90;;;;;;4981420;28;20050;-78
2023/11/07 09:51:50;;;;;;;2.47;0.73;;;11.50;99.90;;;;;;4999573;28;20068;-79
2023/11/07 09:54:22;;;;;;;1.23;0.63;;;11.50;99.90;;;;;;4983429;28;20067;-78
2023/11/07 09:56:52;;;;;;;2.60;1.33;;;11.50;99.90;;;;;;4984021;28;20077;-78
2023/11/07 09:59:19;;;;;;;;;;;11.60;99.90;;;;;;4983956;28;20084;-79
2023/11/07 10:01:46;;;;;;;1.02;0.50;;;11.70;99.90;;;;;;5017646;28;20370;-79
2023/11/07 10:04:14;;;;;;;3.20;1.25;;;11.70;99.90;;;;;;4982531;28;20046;-79
2023/11/07 10:06:42;;;;;;;2.60;0.85;;;11.70;99.90;;;;;;4998429;28;20158;-78
2023/11/07 10:09:12;;;;;;;3.33;1.85;;;11.80;99.90;;;;;;4982629;28;20057;-79
2023/11/07 10:11:49;;;;;;;7.38;4.82;;;11.80;99.90;;;;;;4985529;28;20116;-81
2023/11/07 10:14:20;;;;;;;1.70;1.17;;;11.80;99.90;;;;;;4983307;28;20463;-78
2023/11/07 10:16:56;;;;;;;1.00;0.70;;;11.90;99.90;;;;;;4985499;28;20082;-78
2023/11/07 10:19:25;;;;;;;2.83;0.80;;;11.90;99.90;;;;;;4981653;28;20528;-78
2023/11/07 10:21:52;;;;;;;2.53;0.60;;;11.90;99.90;;;;;;4984801;28;20458;-78
2023/11/07 10:24:20;;;;;;;1.63;0.70;;;12.00;99.90;;;;;;4982867;28;20085;-79
2023/11/07 10:26:51;;;;;;;2.20;0.75;;;12.00;99.90;;;;;;4988930;28;20426;-80
2023/11/07 10:29:30;;;;;;;3.63;0.70;;;12.10;99.90;;;;;;4981923;28;20055;-79
2023/11/07 10:32:07;;;;;;;1.50;0.70;;;12.10;99.90;;;;;;4980388;28;20050;-79
2023/11/07 10:34:39;;;;;;;2.78;0.88;;;12.10;99.90;;;;;;4978854;28;20051;-79
2023/11/07 10:37:06;;;;;;;1.20;0.80;;;12.10;99.90;;;;;;4983511;28;20104;-80
2023/11/07 10:39:35;;;;;;;3.38;0.90;;;12.10;99.90;;;;;;4983143;28;20051;-79
2023/11/07 10:42:18;;;;;;;2.17;0.90;;;12.20;99.90;;;;;;4981970;28;20141;-78
2023/11/07 10:44:49;;;;;;;3.22;1.20;;;12.20;99.90;;;;;;4984696;28;20042;-78
2023/11/07 10:47:17;;;;;;;1.02;0.52;;;12.10;99.90;;;;;;4982634;28;20046;-79
2023/11/07 10:49:45;;;;;;;2.30;0.80;;;12.10;99.90;;;;;;4982811;28;20070;-78
2023/11/07 10:52:11;;;;;;;0.93;0.70;;;12.10;99.90;;;;;;4984109;28;20046;-80
2023/11/07 10:54:38;;;;;;;2.35;0.52;;;12.10;99.90;;;;;;4985584;28;20073;-79
2023/11/07 10:57:09;;;;;;;0.40;0.35;;;12.10;99.90;;;;;;4987036;28;20066;-79
2023/11/07 10:59:40;;;;;;;2.45;0.60;;;12.00;99.90;;;;;;4985881;28;20043;-79
2023/11/07 11:02:08;;;;;;;0.77;0.50;;;12.00;99.90;;;;;;4996958;28;20093;-78
2023/11/07 11:04:37;;;;;;;0.40;0.40;;;12.00;99.90;;;;;;4999929;28;20510;-79
2023/11/07 11:07:07;;;;;;;1.23;0.52;;;11.90;99.90;;;;;;5003874;28;20046;-79
2023/11/07 11:09:35;;;;;;;;;;;11.80;99.90;;;;;;4995380;28;20077;-79
2023/11/07 11:12:03;;;;;;;1.02;0.90;;;11.70;99.90;;;;;;5018909;28;19980;-80
2023/11/07 11:14:30;;;;;;;1.83;0.70;;;11.50;99.90;;;;;;4987192;28;20054;-80
2023/11/07 11:17:09;;;;;;;0.40;0.32;;;11.40;99.90;;;;;;4993970;28;20050;-78
2023/11/07 11:19:52;;;;;;;1.70;0.43;;;11.30;99.90;;;;;;4985277;28;20054;-79
2023/11/07 11:22:32;;;;;;;1.25;0.50;;;11.30;99.90;;;;;;4985284;28;20082;-79
2023/11/07 11:25:36;;;;;;;0.40;0.40;;;11.20;99.90;;;;;;5003034;28;20050;-78
2023/11/07 11:28:05;;;;;;;0.60;0.50;;;11.10;99.90;;;;;;4991860;28;20126;-79
2023/11/07 11:30:34;;;;;;;1.60;0.50;;;11.00;99.90;;;;;;4986698;28;20703;-78
2023/11/07 11:33:09;;;;;;;1.88;0.40;;;10.90;99.90;;;;;;5001937;28;20239;-79
2023/11/07 11:35:39;;;;;;;0.68;0.40;;;11.00;99.90;;;;;;4994342;28;20039;-79
2023/11/07 11:38:15;;;;;;;0.82;0.43;;;10.90;99.90;;;;;;4985580;28;20521;-78
2023/11/07 11:40:49;;;;;;;0.75;0.40;;;10.90;99.90;;;;;;4987503;28;20528;-78
2023/11/07 11:43:18;;;;;;;0.80;0.30;;;10.80;99.90;;;;;;5012207;28;20146;-78
2023/11/07 11:45:45;;;;;;;1.88;0.52;;;10.70;99.90;;;;;;4986037;28;20046;-79
2023/11/07 11:48:13;;;;;;;2.58;0.95;;;10.70;99.90;;;;;;4986087;28;20042;-78
2023/11/07 11:50:40;;;;;;;1.17;0.50;;;10.70;99.90;;;;;;4983344;28;20133;-78
2023/11/07 11:53:09;;;;;;;0.98;0.85;;;10.60;99.90;;;;;;4985051;28;20441;-77
2023/11/07 11:55:58;;;;;;;1.33;0.60;;;10.60;99.90;;;;;;4987221;28;20074;-79
2023/11/07 11:58:30;;;;;;;0.50;0.43;;;10.60;99.90;;;;;;4983345;28;20047;-78
2023/11/07 12:00:58;;;;;;;0.82;0.40;;;10.50;99.90;;;;;;4986754;28;20042;-78
2023/11/07 12:03:35;;;;;;;0.35;0.32;;;10.50;99.90;;;;;;4980798;28;20459;-78
2023/11/07 12:06:04;;;;;;;0.40;0.40;;;10.50;99.90;;;;;;4982098;28;20399;-79
2023/11/07 12:08:37;;;;;;;0.80;0.30;;;10.40;99.90;;;;;;4990334;28;20161;-78
2023/11/07 12:11:05;;;;;;;0.85;0.30;;;10.40;99.90;;;;;;4983622;28;20074;-78
2023/11/07 12:13:31;;;;;;;0.40;0.40;;;10.40;99.90;;;;;;4983757;28;20118;-78
2023/11/07 12:16:19;;;;;;;0.75;0.30;;;10.40;99.90;;;;;;4986662;28;20042;-79
2023/11/07 12:18:51;;;;;;;1.65;0.40;;;10.40;99.90;;;;;;4984132;28;20503;-78
2023/11/07 12:21:27;;;;;;;0.80;0.47;;;10.20;99.90;;;;;;4983932;28;20648;-78
2023/11/07 12:23:56;;;;;;;0.47;0.40;;;10.30;99.90;;;;;;4983400;28;20490;-78
2023/11/07 12:26:39;;;;;;;0.45;0.45;;;10.20;99.90;;;;;;4986335;28;20498;-80
2023/11/07 12:29:06;;;;;;;2.60;0.50;;;10.20;99.90;;;;;;5008373;28;20050;-79
2023/11/07 12:31:37;;;;;;;0.40;0.40;;;10.20;99.90;;;;;;4982505;28;20078;-78
2023/11/07 12:34:08;;;;;;;1.65;0.50;;;10.20;99.90;;;;;;4987703;28;20074;-80
2023/11/07 12:36:38;;;;;;;1.65;0.40;;;10.30;99.90;;;;;;4986489;28;20077;-79
2023/11/07 12:39:06;;;;;;;0.40;0.40;;;10.30;99.90;;;;;;4985395;28;20514;-79
2023/11/07 12:41:33;;;;;;;0.60;0.57;;;10.30;99.90;;;;;;4983838;28;20054;-79
2023/11/07 12:44:11;;;;;;;1.63;0.60;;;10.40;99.90;;;;;;5002563;28;20043;-79
2023/11/07 12:46:39;;;;;;;2.05;0.57;;;10.40;99.90;;;;;;4983330;28;20051;-80
2023/11/07 12:49:13;;;;;;;0.47;0.40;;;10.40;99.90;;;;;;4984451;28;20085;-79
2023/11/07 12:51:40;;;;;;;0.50;0.50;;;10.50;99.90;;;;;;4985528;28;20097;-80
2023/11/07 12:54:07;;;;;;;1.17;0.70;;;10.60;99.90;;;;;;4983985;28;20077;-80
2023/11/07 12:56:43;;;;;;;0.90;0.50;;;10.60;99.90;;;;;;4985159;28;20093;-79
2023/11/07 12:59:11;;;;;;;1.20;0.70;;;10.70;99.90;;;;;;4999455;28;20536;-78